createdAt,value
2018-11-21T00:00:17.462Z,1003.43
2018-11-21T00:01:17.466Z,1003.49
2018-11-21T00:02:17.426Z,1003.50
2018-11-21T00:03:17.506Z,1003.49
2018-11-21T00:04:17.409Z,1003.49
2018-11-21T00:05:17.399Z,1003.55
2018-11-21T00:06:17.385Z,1003.57
2018-11-21T00:07:17.466Z,1003.58
2018-11-21T00:08:17.403Z,1003.66
2018-11-21T00:09:17.370Z,1003.65
2018-11-21T00:10:17.376Z,1003.59
2018-11-21T00:11:17.385Z,1003.64
2018-11-21T00:12:17.461Z,1003.64
2018-11-21T00:13:17.323Z,1003.62
2018-11-21T00:14:17.301Z,1003.67
2018-11-21T00:15:17.383Z,1003.61
2018-11-21T00:16:17.267Z,1003.65
2018-11-21T00:17:17.284Z,1003.64
2018-11-21T00:18:17.245Z,1003.57
2018-11-21T00:19:17.297Z,1003.58
2018-11-21T00:20:17.237Z,1003.55
2018-11-21T00:21:17.233Z,1003.53
2018-11-21T00:22:17.249Z,1003.60
2018-11-21T00:23:17.191Z,1003.59
2018-11-21T00:24:17.186Z,1003.69
2018-11-21T00:25:17.164Z,1003.67
2018-11-21T00:26:17.210Z,1003.71
2018-11-21T00:27:17.230Z,1003.66
2018-11-21T00:28:17.149Z,1003.74
2018-11-21T00:29:17.129Z,1003.74
2018-11-21T00:30:17.106Z,1003.80
2018-11-21T00:31:17.107Z,1003.75
2018-11-21T00:32:17.085Z,1003.73
2018-11-21T00:33:17.195Z,1003.76
2018-11-21T00:34:17.082Z,1003.76
2018-11-21T00:35:17.070Z,1003.78
2018-11-21T00:36:17.044Z,1003.77
2018-11-21T00:37:17.056Z,1003.81
2018-11-21T00:38:17.018Z,1003.81
2018-11-21T00:39:17.008Z,1003.80
2018-11-21T00:40:17.071Z,1003.81
2018-11-21T00:41:17.001Z,1003.77
2018-11-21T00:42:17.023Z,1003.75
2018-11-21T00:43:16.978Z,1003.79
2018-11-21T00:44:16.948Z,1003.77
2018-11-21T00:45:16.949Z,1003.79
2018-11-21T00:46:16.948Z,1003.76
2018-11-21T00:47:16.977Z,1003.86
2018-11-21T00:48:16.926Z,1003.84
2018-11-21T00:49:16.903Z,1003.83
2018-11-21T00:50:16.913Z,1003.85
2018-11-21T00:51:16.963Z,1003.81
2018-11-21T00:52:16.947Z,1003.83
2018-11-21T00:53:16.896Z,1003.74
2018-11-21T00:54:16.854Z,1003.73
2018-11-21T00:55:16.856Z,1003.69
2018-11-21T00:56:16.815Z,1003.70
2018-11-21T00:57:16.826Z,1003.65
2018-11-21T00:58:16.810Z,1003.68
2018-11-21T00:59:16.829Z,1003.69
2018-11-21T01:00:16.833Z,1003.64
2018-11-21T01:01:16.804Z,1003.71
2018-11-21T01:02:16.763Z,1003.70
2018-11-21T01:03:16.783Z,1003.75
2018-11-21T01:04:16.736Z,1003.79
2018-11-21T01:05:16.721Z,1003.80
2018-11-21T01:06:16.726Z,1003.83
2018-11-21T01:07:16.751Z,1003.87
2018-11-21T01:08:16.711Z,1003.88
2018-11-21T01:09:16.676Z,1003.85
2018-11-21T01:10:16.659Z,1003.90
2018-11-21T01:11:16.710Z,1003.89
2018-11-21T01:12:16.693Z,1003.95
2018-11-21T01:13:16.690Z,1003.96
2018-11-21T01:14:16.614Z,1004.04
2018-11-21T01:15:16.693Z,1004.04
2018-11-21T01:16:16.611Z,1004.03
2018-11-21T01:17:16.578Z,1004.03
2018-11-21T01:18:16.587Z,1004.04
2018-11-21T01:19:16.572Z,1004.05
2018-11-21T01:20:16.552Z,1004.09
2018-11-21T01:21:16.535Z,1004.15
2018-11-21T01:22:16.524Z,1004.13
2018-11-21T01:23:16.530Z,1004.22
2018-11-21T01:24:16.549Z,1004.24
2018-11-21T01:25:16.523Z,1004.28
2018-11-21T01:26:16.520Z,1004.27
2018-11-21T01:27:16.545Z,1004.29
2018-11-21T01:28:16.516Z,1004.31
2018-11-21T01:29:16.454Z,1004.29
2018-11-21T01:30:16.500Z,1004.29
2018-11-21T01:31:16.432Z,1004.26
2018-11-21T01:32:16.411Z,1004.28
2018-11-21T01:33:16.557Z,1004.31
2018-11-21T01:34:16.392Z,1004.25
2018-11-21T01:35:16.468Z,1004.29
2018-11-21T01:36:16.369Z,1004.34
2018-11-21T01:37:16.392Z,1004.30
2018-11-21T01:38:16.352Z,1004.37
2018-11-21T01:39:16.342Z,1004.38
2018-11-21T01:40:16.327Z,1004.41
2018-11-21T01:41:16.319Z,1004.39
2018-11-21T01:42:16.304Z,1004.38
2018-11-21T01:43:16.287Z,1004.34
2018-11-21T01:44:16.309Z,1004.36
2018-11-21T01:45:16.270Z,1004.38
2018-11-21T01:46:16.337Z,1004.38
2018-11-21T01:47:16.255Z,1004.37
2018-11-21T01:48:16.251Z,1004.37
2018-11-21T01:49:16.256Z,1004.38
2018-11-21T01:50:16.287Z,1004.40
2018-11-21T01:51:16.228Z,1004.39
2018-11-21T01:52:16.217Z,1004.39
2018-11-21T01:53:16.182Z,1004.39
2018-11-21T01:54:16.194Z,1004.39
2018-11-21T01:55:16.227Z,1004.41
2018-11-21T01:56:16.141Z,1004.40
2018-11-21T01:57:16.144Z,1004.45
2018-11-21T01:58:16.159Z,1004.42
2018-11-21T01:59:16.134Z,1004.42
2018-11-21T02:00:16.105Z,1004.45
2018-11-21T02:01:16.115Z,1004.48
2018-11-21T02:02:16.083Z,1004.54
2018-11-21T02:03:16.065Z,1004.51
2018-11-21T02:04:16.065Z,1004.49
2018-11-21T02:05:16.042Z,1004.48
2018-11-21T02:06:16.070Z,1004.53
2018-11-21T02:07:16.071Z,1004.55
2018-11-21T02:08:16.024Z,1004.61
2018-11-21T02:09:16.007Z,1004.60
2018-11-21T02:10:16.003Z,1004.59
2018-11-21T02:11:15.989Z,1004.58
2018-11-21T02:12:15.972Z,1004.57
2018-11-21T02:13:15.959Z,1004.55
2018-11-21T02:14:15.958Z,1004.59
2018-11-21T02:15:15.962Z,1004.58
2018-11-21T02:16:15.942Z,1004.56
2018-11-21T02:17:15.926Z,1004.57
2018-11-21T02:18:15.907Z,1004.57
2018-11-21T02:19:15.912Z,1004.59
2018-11-21T02:20:15.883Z,1004.61
2018-11-21T02:21:15.921Z,1004.62
2018-11-21T02:22:15.892Z,1004.60
2018-11-21T02:23:15.854Z,1004.66
2018-11-21T02:24:15.832Z,1004.63
2018-11-21T02:25:15.952Z,1004.67
2018-11-21T02:26:15.833Z,1004.61
2018-11-21T02:27:15.845Z,1004.59
2018-11-21T02:28:15.796Z,1004.58
2018-11-21T02:29:15.812Z,1004.59
2018-11-21T02:30:15.871Z,1004.62
2018-11-21T02:31:15.758Z,1004.66
2018-11-21T02:32:15.742Z,1004.69
2018-11-21T02:33:15.804Z,1004.73
2018-11-21T02:34:15.742Z,1004.67
2018-11-21T02:35:15.734Z,1004.67
2018-11-21T02:36:15.694Z,1004.73
2018-11-21T02:37:15.698Z,1004.70
2018-11-21T02:38:15.710Z,1004.71
2018-11-21T02:39:15.716Z,1004.74
2018-11-21T02:40:15.718Z,1004.79
2018-11-21T02:41:15.637Z,1004.81
2018-11-21T02:42:15.656Z,1004.79
2018-11-21T02:43:15.625Z,1004.82
2018-11-21T02:44:15.602Z,1004.84
2018-11-21T02:45:15.610Z,1004.78
2018-11-21T02:46:15.662Z,1004.78
2018-11-21T02:47:15.579Z,1004.79
2018-11-21T02:48:15.561Z,1004.81
2018-11-21T02:49:15.554Z,1004.81
2018-11-21T02:50:15.563Z,1004.79
2018-11-21T02:51:15.526Z,1004.87
2018-11-21T02:52:15.537Z,1004.87
2018-11-21T02:53:15.508Z,1004.96
2018-11-21T02:54:15.505Z,1004.92
2018-11-21T02:55:15.554Z,1004.95
2018-11-21T02:56:15.532Z,1005.00
2018-11-21T02:57:15.474Z,1005.05
2018-11-21T02:58:15.468Z,1005.02
2018-11-21T02:59:15.445Z,1005.08
2018-11-21T03:00:15.427Z,1005.08
2018-11-21T03:01:15.438Z,1005.06
2018-11-21T03:02:15.561Z,1005.08
2018-11-21T03:03:26.021Z,1005.00
2018-11-21T03:04:15.422Z,1004.97
2018-11-21T03:05:15.414Z,1004.90
2018-11-21T03:06:15.365Z,1004.84
2018-11-21T03:07:15.359Z,1004.84
2018-11-21T03:08:15.374Z,1004.81
2018-11-21T03:09:15.353Z,1004.82
2018-11-21T03:10:15.321Z,1004.80
2018-11-21T03:11:15.311Z,1004.84
2018-11-21T03:12:15.316Z,1004.93
2018-11-21T03:13:15.300Z,1004.99
2018-11-21T03:14:15.287Z,1005.03
2018-11-21T03:15:15.313Z,1005.06
2018-11-21T03:16:15.249Z,1005.07
2018-11-21T03:17:15.242Z,1005.10
2018-11-21T03:18:15.237Z,1005.08
2018-11-21T03:19:15.250Z,1005.11
2018-11-21T03:20:15.217Z,1005.12
2018-11-21T03:21:15.241Z,1005.11
2018-11-21T03:22:15.180Z,1005.13
2018-11-21T03:23:15.165Z,1005.13
2018-11-21T03:24:15.177Z,1005.19
2018-11-21T03:25:15.146Z,1005.18
2018-11-21T03:26:15.141Z,1005.29
2018-11-21T03:27:15.161Z,1005.28
2018-11-21T03:28:15.108Z,1005.35
2018-11-21T03:29:15.222Z,1005.35
2018-11-21T03:30:15.182Z,1005.31
2018-11-21T03:31:15.119Z,1005.37
2018-11-21T03:32:15.074Z,1005.38
2018-11-21T03:33:15.085Z,1005.42
2018-11-21T03:34:15.139Z,1005.42
2018-11-21T03:35:15.048Z,1005.50
2018-11-21T03:36:15.051Z,1005.48
2018-11-21T03:37:15.066Z,1005.41
2018-11-21T03:38:14.996Z,1005.44
2018-11-21T03:39:14.984Z,1005.46
2018-11-21T03:40:15.047Z,1005.47
2018-11-21T03:41:14.966Z,1005.51
2018-11-21T03:42:14.985Z,1005.50
2018-11-21T03:43:14.997Z,1005.50
2018-11-21T03:44:14.926Z,1005.51
2018-11-21T03:45:14.932Z,1005.55
2018-11-21T03:46:14.902Z,1005.59
2018-11-21T03:47:14.897Z,1005.62
2018-11-21T03:48:14.890Z,1005.67
2018-11-21T03:49:14.872Z,1005.73
2018-11-21T03:50:14.889Z,1005.73
2018-11-21T03:51:14.904Z,1005.73
2018-11-21T03:52:14.892Z,1005.73
2018-11-21T03:53:14.831Z,1005.76
2018-11-21T03:54:14.856Z,1005.78
2018-11-21T03:55:14.835Z,1005.78
2018-11-21T03:56:15.078Z,1005.80
2018-11-21T03:57:14.795Z,1005.80
2018-11-21T03:58:14.781Z,1005.73
2018-11-21T03:59:14.759Z,1005.71
2018-11-21T04:00:14.803Z,1005.64
2018-11-21T04:01:14.733Z,1005.61
2018-11-21T04:02:14.774Z,1005.60
2018-11-21T04:03:14.847Z,1005.58
2018-11-21T04:04:14.723Z,1005.54
2018-11-21T04:05:14.714Z,1005.54
2018-11-21T04:06:14.700Z,1005.57
2018-11-21T04:07:14.701Z,1005.62
2018-11-21T04:08:14.672Z,1005.69
2018-11-21T04:09:14.674Z,1005.68
2018-11-21T04:10:14.860Z,1005.68
2018-11-21T04:11:14.689Z,1005.67
2018-11-21T04:12:14.676Z,1005.69
2018-11-21T04:13:14.620Z,1005.65
2018-11-21T04:14:14.608Z,1005.66
2018-11-21T04:15:14.607Z,1005.63
2018-11-21T04:16:14.565Z,1005.60
2018-11-21T04:17:14.623Z,1005.60
2018-11-21T04:18:14.545Z,1005.68
2018-11-21T04:19:14.532Z,1005.65
2018-11-21T04:20:14.548Z,1005.68
2018-11-21T04:21:14.517Z,1005.78
2018-11-21T04:22:14.510Z,1005.78
2018-11-21T04:23:14.500Z,1005.77
2018-11-21T04:24:14.483Z,1005.86
2018-11-21T04:25:14.473Z,1005.86
2018-11-21T04:26:14.454Z,1005.85
2018-11-21T04:27:14.487Z,1005.88
2018-11-21T04:28:14.441Z,1005.90
2018-11-21T04:29:14.422Z,1005.89
2018-11-21T04:30:14.449Z,1005.89
2018-11-21T04:31:14.399Z,1005.89
2018-11-21T04:32:14.388Z,1005.95
2018-11-21T04:33:14.479Z,1005.93
2018-11-21T04:34:14.381Z,1005.96
2018-11-21T04:35:14.408Z,1005.99
2018-11-21T04:36:14.346Z,1006.00
2018-11-21T04:37:14.337Z,1006.04
2018-11-21T04:38:14.347Z,1006.03
2018-11-21T04:39:14.304Z,1006.05
2018-11-21T04:40:14.303Z,1006.02
2018-11-21T04:41:14.296Z,1006.03
2018-11-21T04:42:14.273Z,1006.03
2018-11-21T04:43:14.300Z,1006.06
2018-11-21T04:44:14.329Z,1006.06
2018-11-21T04:45:14.266Z,1006.11
2018-11-21T04:46:14.277Z,1006.12
2018-11-21T04:47:14.263Z,1006.10
2018-11-21T04:48:14.214Z,1006.05
2018-11-21T04:49:14.255Z,1006.02
2018-11-21T04:50:14.184Z,1006.03
2018-11-21T04:51:14.183Z,1006.05
2018-11-21T04:52:14.203Z,1006.01
2018-11-21T04:53:14.175Z,1006.01
2018-11-21T04:54:14.179Z,1006.03
2018-11-21T04:55:14.146Z,1006.07
2018-11-21T04:56:14.143Z,1006.12
2018-11-21T04:57:14.112Z,1006.14
2018-11-21T04:58:14.118Z,1006.13
2018-11-21T04:59:14.124Z,1006.12
2018-11-21T05:00:14.085Z,1006.15
2018-11-21T05:01:14.060Z,1006.24
2018-11-21T05:02:14.074Z,1006.23
2018-11-21T05:03:14.116Z,1006.28
2018-11-21T05:04:14.084Z,1006.32
2018-11-21T05:05:14.020Z,1006.27
2018-11-21T05:06:14.006Z,1006.23
2018-11-21T05:07:14.031Z,1006.24
2018-11-21T05:08:14.022Z,1006.25
2018-11-21T05:09:14.013Z,1006.28
2018-11-21T05:10:13.966Z,1006.32
2018-11-21T05:11:13.955Z,1006.34
2018-11-21T05:12:13.948Z,1006.39
2018-11-21T05:13:13.952Z,1006.43
2018-11-21T05:14:13.949Z,1006.39
2018-11-21T05:15:13.950Z,1006.34
2018-11-21T05:16:13.988Z,1006.38
2018-11-21T05:17:13.885Z,1006.39
2018-11-21T05:18:13.909Z,1006.41
2018-11-21T05:19:13.940Z,1006.39
2018-11-21T05:20:13.851Z,1006.40
2018-11-21T05:21:13.883Z,1006.37
2018-11-21T05:22:13.826Z,1006.35
2018-11-21T05:23:13.827Z,1006.32
2018-11-21T05:24:13.828Z,1006.29
2018-11-21T05:25:14.792Z,1006.28
2018-11-21T05:26:13.799Z,1006.29
2018-11-21T05:27:13.774Z,1006.33
2018-11-21T05:28:13.760Z,1006.38
2018-11-21T05:29:13.805Z,1006.41
2018-11-21T05:30:13.741Z,1006.39
2018-11-21T05:31:13.740Z,1006.41
2018-11-21T05:32:13.716Z,1006.34
2018-11-21T05:33:13.749Z,1006.35
2018-11-21T05:34:13.769Z,1006.40
2018-11-21T05:35:13.686Z,1006.42
2018-11-21T05:36:13.701Z,1006.47
2018-11-21T05:37:13.658Z,1006.50
2018-11-21T05:38:13.644Z,1006.56
2018-11-21T05:39:13.647Z,1006.62
2018-11-21T05:40:13.671Z,1006.70
2018-11-21T05:41:13.634Z,1006.71
2018-11-21T05:42:13.640Z,1006.71
2018-11-21T05:43:13.591Z,1006.71
2018-11-21T05:44:13.591Z,1006.69
2018-11-21T05:45:13.570Z,1006.63
2018-11-21T05:46:13.556Z,1006.60
2018-11-21T05:47:13.546Z,1006.64
2018-11-21T05:48:13.537Z,1006.69
2018-11-21T05:49:13.588Z,1006.75
2018-11-21T05:50:13.511Z,1006.77
2018-11-21T05:51:13.503Z,1006.81
2018-11-21T05:52:13.489Z,1006.83
2018-11-21T05:53:13.482Z,1006.87
2018-11-21T05:54:13.487Z,1006.90
2018-11-21T05:55:13.524Z,1006.87
2018-11-21T05:56:13.454Z,1006.93
2018-11-21T05:57:13.432Z,1006.96
2018-11-21T05:58:13.428Z,1007.00
2018-11-21T05:59:13.422Z,1007.00
2018-11-21T06:00:13.419Z,1006.99
2018-11-21T06:01:13.394Z,1006.99
2018-11-21T06:02:13.380Z,1006.97
2018-11-21T06:03:13.383Z,1006.92
2018-11-21T06:04:13.383Z,1006.91
2018-11-21T06:05:13.396Z,1006.95
2018-11-21T06:06:13.424Z,1006.96
2018-11-21T06:07:13.391Z,1007.04
2018-11-21T06:08:13.320Z,1007.10
2018-11-21T06:09:13.333Z,1007.16
2018-11-21T06:10:13.292Z,1007.21
2018-11-21T06:11:13.308Z,1007.12
2018-11-21T06:12:13.333Z,1007.10
2018-11-21T06:13:13.256Z,1007.15
2018-11-21T06:14:13.238Z,1007.16
2018-11-21T06:15:13.262Z,1007.18
2018-11-21T06:16:13.266Z,1007.15
2018-11-21T06:17:13.215Z,1007.17
2018-11-21T06:18:13.205Z,1007.14
2018-11-21T06:19:13.194Z,1007.15
2018-11-21T06:20:13.181Z,1007.14
2018-11-21T06:21:13.169Z,1007.13
2018-11-21T06:22:13.195Z,1007.16
2018-11-21T06:23:13.154Z,1007.18
2018-11-21T06:24:13.167Z,1007.22
2018-11-21T06:25:13.132Z,1007.23
2018-11-21T06:26:13.144Z,1007.25
2018-11-21T06:27:13.102Z,1007.23
2018-11-21T06:28:13.090Z,1007.26
2018-11-21T06:29:13.086Z,1007.25
2018-11-21T06:30:13.073Z,1007.26
2018-11-21T06:31:13.047Z,1007.31
2018-11-21T06:32:13.703Z,1007.36
2018-11-21T06:33:13.037Z,1007.41
2018-11-21T06:34:13.075Z,1007.41
2018-11-21T06:35:13.000Z,1007.42
2018-11-21T06:36:12.995Z,1007.43
2018-11-21T06:37:12.981Z,1007.41
2018-11-21T06:38:12.970Z,1007.36
2018-11-21T06:39:13.000Z,1007.38
2018-11-21T06:40:13.012Z,1007.36
2018-11-21T06:41:12.938Z,1007.33
2018-11-21T06:42:12.948Z,1007.38
2018-11-21T06:43:12.915Z,1007.39
2018-11-21T06:44:12.924Z,1007.39
2018-11-21T06:45:12.897Z,1007.40
2018-11-21T06:46:12.939Z,1007.42
2018-11-21T06:47:12.866Z,1007.41
2018-11-21T06:48:12.860Z,1007.36
2018-11-21T06:49:12.844Z,1007.41
2018-11-21T06:50:12.833Z,1007.42
2018-11-21T06:51:12.834Z,1007.45
2018-11-21T06:52:12.816Z,1007.45
2018-11-21T06:53:12.809Z,1007.45
2018-11-21T06:54:12.868Z,1007.54
2018-11-21T06:55:12.885Z,1007.58
2018-11-21T06:56:12.786Z,1007.62
2018-11-21T06:57:12.803Z,1007.64
2018-11-21T06:58:12.750Z,1007.67
2018-11-21T06:59:12.779Z,1007.71
2018-11-21T07:00:12.748Z,1007.62
2018-11-21T07:01:12.838Z,1007.67
2018-11-21T07:02:12.745Z,1007.67
2018-11-21T07:03:12.736Z,1007.69
2018-11-21T07:04:12.737Z,1007.66
2018-11-21T07:05:12.668Z,1007.65
2018-11-21T07:06:12.685Z,1007.66
2018-11-21T07:07:12.675Z,1007.68
2018-11-21T07:08:12.712Z,1007.70
2018-11-21T07:09:12.617Z,1007.77
2018-11-21T07:10:12.744Z,1007.80
2018-11-21T07:11:12.616Z,1007.76
2018-11-21T07:12:12.593Z,1007.84
2018-11-21T07:13:12.576Z,1007.88
2018-11-21T07:14:12.572Z,1007.88
2018-11-21T07:15:12.581Z,1007.90
2018-11-21T07:16:12.698Z,1007.89
2018-11-21T07:17:12.533Z,1007.90
2018-11-21T07:18:12.538Z,1007.90
2018-11-21T07:19:12.533Z,1007.87
2018-11-21T07:20:12.552Z,1007.87
2018-11-21T07:21:12.502Z,1007.85
2018-11-21T07:22:12.480Z,1007.87
2018-11-21T07:23:12.484Z,1007.93
2018-11-21T07:24:12.450Z,1007.95
2018-11-21T07:25:12.448Z,1007.98
2018-11-21T07:26:12.451Z,1007.97
2018-11-21T07:27:12.426Z,1007.98
2018-11-21T07:28:13.188Z,1007.96
2018-11-21T07:29:12.393Z,1008.02
2018-11-21T07:30:12.392Z,1007.99
2018-11-21T07:31:12.507Z,1007.95
2018-11-21T07:32:12.356Z,1007.89
2018-11-21T07:33:12.374Z,1007.87
2018-11-21T07:34:12.337Z,1007.93
2018-11-21T07:35:17.819Z,1007.96
2018-11-21T07:36:12.319Z,1007.99
2018-11-21T07:37:12.379Z,1008.07
2018-11-21T07:38:12.289Z,1008.10
2018-11-21T07:39:12.282Z,1008.10
2018-11-21T07:40:12.273Z,1008.16
2018-11-21T07:41:12.279Z,1008.09
2018-11-21T07:42:12.271Z,1008.10
2018-11-21T07:43:12.342Z,1008.08
2018-11-21T07:44:12.224Z,1008.04
2018-11-21T07:45:12.215Z,1008.09
2018-11-21T07:46:12.205Z,1008.12
2018-11-21T07:47:12.204Z,1008.22
2018-11-21T07:48:12.184Z,1008.14
2018-11-21T07:49:12.293Z,1008.16
2018-11-21T07:50:12.236Z,1008.17
2018-11-21T07:51:12.218Z,1008.16
2018-11-21T07:52:12.225Z,1008.20
2018-11-21T07:53:12.204Z,1008.16
2018-11-21T07:54:12.143Z,1008.19
2018-11-21T07:55:12.144Z,1008.19
2018-11-21T07:56:12.153Z,1008.21
2018-11-21T07:57:12.173Z,1008.23
2018-11-21T07:58:12.071Z,1008.24
2018-11-21T07:59:12.062Z,1008.25
2018-11-21T08:00:12.054Z,1008.27
2018-11-21T08:01:12.055Z,1008.26
2018-11-21T08:02:12.108Z,1008.28
2018-11-21T08:03:12.118Z,1008.27
2018-11-21T08:04:11.995Z,1008.26
2018-11-21T08:05:12.003Z,1008.29
2018-11-21T08:06:11.992Z,1008.29
2018-11-21T08:07:11.976Z,1008.32
2018-11-21T08:08:11.955Z,1008.34
2018-11-21T08:09:11.947Z,1008.36
2018-11-21T08:10:11.938Z,1008.34
2018-11-21T08:11:11.941Z,1008.35
2018-11-21T08:12:11.944Z,1008.33
2018-11-21T08:13:11.982Z,1008.37
2018-11-21T08:14:11.896Z,1008.38
2018-11-21T08:15:11.874Z,1008.48
2018-11-21T08:16:11.868Z,1008.47
2018-11-21T08:17:11.879Z,1008.46
2018-11-21T08:18:11.853Z,1008.49
2018-11-21T08:19:11.835Z,1008.51
2018-11-21T08:20:11.820Z,1008.56
2018-11-21T08:21:11.814Z,1008.64
2018-11-21T08:22:11.805Z,1008.57
2018-11-21T08:23:11.808Z,1008.60
2018-11-21T08:24:11.773Z,1008.57
2018-11-21T08:25:11.774Z,1008.53
2018-11-21T08:26:11.766Z,1008.56
2018-11-21T08:27:11.761Z,1008.54
2018-11-21T08:28:11.744Z,1008.53
2018-11-21T08:29:11.828Z,1008.56
2018-11-21T08:30:11.715Z,1008.58
2018-11-21T08:31:11.714Z,1008.57
2018-11-21T08:32:11.704Z,1008.58
2018-11-21T08:33:11.798Z,1008.68
2018-11-21T08:34:11.691Z,1008.72
2018-11-21T08:35:11.655Z,1008.74
2018-11-21T08:36:11.638Z,1008.78
2018-11-21T08:37:11.648Z,1008.80
2018-11-21T08:38:11.632Z,1008.81
2018-11-21T08:39:11.759Z,1008.83
2018-11-21T08:40:11.610Z,1008.84
2018-11-21T08:41:11.584Z,1008.86
2018-11-21T08:42:11.578Z,1008.88
2018-11-21T08:43:11.585Z,1008.87
2018-11-21T08:44:11.620Z,1008.94
2018-11-21T08:45:11.585Z,1008.95
2018-11-21T08:46:11.543Z,1008.89
2018-11-21T08:47:11.525Z,1008.89
2018-11-21T08:48:11.555Z,1008.90
2018-11-21T08:49:11.497Z,1008.91
2018-11-21T08:50:11.487Z,1008.93
2018-11-21T08:51:11.494Z,1008.96
2018-11-21T08:52:11.658Z,1009.03
2018-11-21T08:53:11.507Z,1009.07
2018-11-21T08:54:11.447Z,1009.17
2018-11-21T08:55:11.464Z,1009.13
2018-11-21T08:56:11.537Z,1009.07
2018-11-21T08:57:11.416Z,1009.08
2018-11-21T08:58:11.402Z,1009.07
2018-11-21T08:59:11.384Z,1009.11
2018-11-21T09:00:11.518Z,1009.08
2018-11-21T09:01:11.387Z,1009.13
2018-11-21T09:02:11.371Z,1009.12
2018-11-21T09:03:11.400Z,1009.13
2018-11-21T09:04:11.340Z,1009.10
2018-11-21T09:05:11.376Z,1009.13
2018-11-21T09:06:11.308Z,1009.13
2018-11-21T09:07:11.350Z,1009.13
2018-11-21T09:08:11.284Z,1009.11
2018-11-21T09:09:11.281Z,1009.10
2018-11-21T09:10:11.272Z,1009.06
2018-11-21T09:11:11.284Z,1009.08
2018-11-21T09:12:15.322Z,1009.11
2018-11-21T09:13:11.250Z,1009.15
2018-11-21T09:14:11.241Z,1009.12
2018-11-21T09:15:11.213Z,1009.17
2018-11-21T09:16:11.275Z,1009.13
2018-11-21T09:17:11.211Z,1009.16
2018-11-21T09:18:11.187Z,1009.15
2018-11-21T09:19:11.248Z,1009.20
2018-11-21T09:20:11.185Z,1009.22
2018-11-21T09:21:11.169Z,1009.23
2018-11-21T09:22:11.169Z,1009.30
2018-11-21T09:23:11.228Z,1009.36
2018-11-21T09:24:11.095Z,1009.39
2018-11-21T09:25:11.120Z,1009.45
2018-11-21T09:26:11.082Z,1009.40
2018-11-21T09:27:11.106Z,1009.45
2018-11-21T09:28:11.051Z,1009.48
2018-11-21T09:29:11.116Z,1009.51
2018-11-21T09:30:11.164Z,1009.52
2018-11-21T09:31:11.264Z,1009.48
2018-11-21T09:32:11.019Z,1009.51
2018-11-21T09:33:11.061Z,1009.50
2018-11-21T09:34:11.025Z,1009.55
2018-11-21T09:35:11.010Z,1009.54
2018-11-21T09:36:10.973Z,1009.55
2018-11-21T09:37:10.957Z,1009.55
2018-11-21T09:38:10.952Z,1009.53
2018-11-21T09:39:11.046Z,1009.54
2018-11-21T09:40:10.952Z,1009.58
2018-11-21T09:41:10.917Z,1009.57
2018-11-21T09:42:10.907Z,1009.56
2018-11-21T09:43:10.894Z,1009.53
2018-11-21T09:44:10.884Z,1009.59
2018-11-21T09:45:11.394Z,1009.58
2018-11-21T09:46:10.892Z,1009.58
2018-11-21T09:47:10.837Z,1009.60
2018-11-21T09:48:10.845Z,1009.62
2018-11-21T09:49:10.847Z,1009.66
2018-11-21T09:50:10.827Z,1009.65
2018-11-21T09:51:10.803Z,1009.61
2018-11-21T09:52:10.829Z,1009.65
2018-11-21T09:53:10.805Z,1009.61
2018-11-21T09:54:10.760Z,1009.65
2018-11-21T09:55:10.802Z,1009.65
2018-11-21T09:56:10.736Z,1009.70
2018-11-21T09:57:10.734Z,1009.75
2018-11-21T09:58:10.734Z,1009.72
2018-11-21T09:59:10.723Z,1009.79
2018-11-21T10:00:10.716Z,1009.82
2018-11-21T10:01:10.680Z,1009.88
2018-11-21T10:02:10.766Z,1009.88
2018-11-21T10:03:10.686Z,1009.90
2018-11-21T10:04:10.659Z,1009.97
2018-11-21T10:05:10.640Z,1009.92
2018-11-21T10:06:10.625Z,1009.92
2018-11-21T10:07:10.610Z,1009.93
2018-11-21T10:08:10.601Z,1009.94
2018-11-21T10:09:10.603Z,1009.92
2018-11-21T10:10:10.622Z,1009.94
2018-11-21T10:11:10.622Z,1009.96
2018-11-21T10:12:10.557Z,1009.97
2018-11-21T10:13:10.545Z,1009.97
2018-11-21T10:14:10.564Z,1009.95
2018-11-21T10:15:10.541Z,1009.92
2018-11-21T10:16:10.523Z,1009.91
2018-11-21T10:17:10.522Z,1009.90
2018-11-21T10:18:10.523Z,1009.85
2018-11-21T10:19:10.488Z,1009.85
2018-11-21T10:20:10.508Z,1009.75
2018-11-21T10:21:10.492Z,1009.78
2018-11-21T10:22:10.482Z,1009.80
2018-11-21T10:23:10.462Z,1009.81
2018-11-21T10:24:10.423Z,1009.78
2018-11-21T10:25:10.409Z,1009.81
2018-11-21T10:26:10.403Z,1009.80
2018-11-21T10:27:10.405Z,1009.80
2018-11-21T10:28:10.400Z,1009.80
2018-11-21T10:29:10.371Z,1009.77
2018-11-21T10:30:10.358Z,1009.72
2018-11-21T10:31:10.354Z,1009.78
2018-11-21T10:32:10.357Z,1009.80
2018-11-21T10:33:10.417Z,1009.78
2018-11-21T10:34:10.327Z,1009.81
2018-11-21T10:35:10.298Z,1009.80
2018-11-21T10:36:10.320Z,1009.78
2018-11-21T10:37:10.406Z,1009.77
2018-11-21T10:38:10.266Z,1009.80
2018-11-21T10:39:10.266Z,1009.72
2018-11-21T10:40:10.250Z,1009.71
2018-11-21T10:41:10.254Z,1009.67
2018-11-21T10:42:10.230Z,1009.70
2018-11-21T10:43:10.222Z,1009.74
2018-11-21T10:44:10.197Z,1009.69
2018-11-21T10:45:10.187Z,1009.70
2018-11-21T10:46:10.178Z,1009.69
2018-11-21T10:47:10.178Z,1009.73
2018-11-21T10:48:10.185Z,1009.78
2018-11-21T10:49:10.140Z,1009.85
2018-11-21T10:50:10.132Z,1009.82
2018-11-21T10:51:10.146Z,1009.83
2018-11-21T10:52:10.111Z,1009.81
2018-11-21T10:53:10.099Z,1009.90
2018-11-21T10:54:10.089Z,1009.90
2018-11-21T10:55:10.116Z,1009.94
2018-11-21T10:56:10.071Z,1009.91
2018-11-21T10:57:10.142Z,1009.94
2018-11-21T10:58:10.043Z,1009.87
2018-11-21T10:59:10.029Z,1009.90
2018-11-21T11:00:10.020Z,1009.89
2018-11-21T11:01:10.025Z,1009.89
2018-11-21T11:02:10.224Z,1009.91
2018-11-21T11:03:10.054Z,1009.93
2018-11-21T11:04:09.972Z,1009.97
2018-11-21T11:05:09.972Z,1009.98
2018-11-21T11:06:09.969Z,1009.99
2018-11-21T11:07:09.951Z,1010.00
2018-11-21T11:08:09.935Z,1010.05
2018-11-21T11:09:09.928Z,1010.08
2018-11-21T11:10:09.906Z,1010.05
2018-11-21T11:11:09.916Z,1009.99
2018-11-21T11:12:09.932Z,1009.99
2018-11-21T11:13:09.869Z,1009.99
2018-11-21T11:14:09.863Z,1009.98
2018-11-21T11:15:09.859Z,1009.93
2018-11-21T11:16:09.841Z,1009.97
2018-11-21T11:17:09.836Z,1009.96
2018-11-21T11:18:09.852Z,1009.96
2018-11-21T11:19:09.819Z,1010.01
2018-11-21T11:20:09.794Z,1009.97
2018-11-21T11:21:09.796Z,1009.98
2018-11-21T11:22:09.781Z,1009.97
2018-11-21T11:23:09.769Z,1010.02
2018-11-21T11:24:09.810Z,1009.99
2018-11-21T11:25:09.754Z,1010.01
2018-11-21T11:26:09.739Z,1010.03
2018-11-21T11:27:09.721Z,1010.04
2018-11-21T11:28:10.317Z,1010.04
2018-11-21T11:29:09.714Z,1010.05
2018-11-21T11:30:09.683Z,1010.03
2018-11-21T11:31:09.691Z,1010.06
2018-11-21T11:32:09.662Z,1010.07
2018-11-21T11:33:09.783Z,1010.13
2018-11-21T11:34:09.649Z,1010.15
2018-11-21T11:35:09.638Z,1010.14
2018-11-21T11:36:09.614Z,1010.17
2018-11-21T11:37:09.607Z,1010.19
2018-11-21T11:38:09.596Z,1010.13
2018-11-21T11:39:09.593Z,1010.12
2018-11-21T11:40:09.573Z,1010.12
2018-11-21T11:41:09.557Z,1010.12
2018-11-21T11:42:09.636Z,1010.09
2018-11-21T11:43:09.554Z,1010.09
2018-11-21T11:44:09.531Z,1010.12
2018-11-21T11:45:10.202Z,1010.10
2018-11-21T11:46:10.079Z,1010.14
2018-11-21T11:47:09.537Z,1010.17
2018-11-21T11:48:09.502Z,1010.25
2018-11-21T11:49:09.548Z,1010.24
2018-11-21T11:50:09.471Z,1010.23
2018-11-21T11:51:09.505Z,1010.17
2018-11-21T11:52:09.444Z,1010.14
2018-11-21T11:53:09.517Z,1010.11
2018-11-21T11:54:09.417Z,1010.07
2018-11-21T11:55:09.413Z,1010.10
2018-11-21T11:56:09.405Z,1010.10
2018-11-21T11:57:09.519Z,1010.10
2018-11-21T11:58:09.411Z,1010.15
2018-11-21T11:59:09.413Z,1010.15
2018-11-21T12:00:09.352Z,1010.17
2018-11-21T12:01:09.340Z,1010.10
2018-11-21T12:02:13.144Z,1010.13
2018-11-21T12:03:09.642Z,1010.10
2018-11-21T12:04:09.432Z,1010.13
2018-11-21T12:05:09.293Z,1010.15